Flight Track Log - Related Links

Times and Time Zones

All times are in EST time to prevent confusion due to time zone crossing. See the SWA4986 flight status page for this flight to view local times or setup timezone preferences in your user account.

Time Position Orientation Groundspeed Altitude Reporting Facility
EST Latitude Longitude Course Direction KTS MPH feet Rate Location/Type
Wed 10:34:53 AM 32.0297 -102.2869 303° West 238 274 7,700  Level Fort Worth Center
Wed 10:35:55 AM 32.0728 -102.3567 306° West 255 293 10,500 2,516 Climbing Fort Worth Center
Wed 10:36:57 AM 32.1297 -102.4572 304° West 297 342 12,900 2,468 Climbing Fort Worth Center
Wed 10:37:59 AM 32.1822 -102.5522 303° West 329 379 15,600 2,592 Climbing Fort Worth Center
Wed 10:39:00 AM 32.1681 -102.5937 308° West  Level FlightAware Approximate
Wed 10:39:02 AM 32.2364 -102.6461 304° West 341 392 18,300  Level Fort Worth Center
Wed 10:40:04 AM 32.2914 -102.7431 304° West 351 404 19,700 1,839 Climbing Fort Worth Center
Wed 10:41:06 AM 32.3494 -102.8444 304° West 366 421 22,100 1,887 Climbing Fort Worth Center
Wed 10:42:08 AM 32.4067 -102.9458 304° West 367 422 23,600 1,452 Climbing Fort Worth Center
Wed 10:43:10 AM 32.4661 -103.0506 304° West 382 440 25,100 1,839 Climbing Fort Worth Center
Wed 10:44:12 AM 32.5239 -103.1547 303° West 380 437 27,400 1,984 Climbing Fort Worth Center
Wed 10:45:14 AM 32.5936 -103.2764 304° West 373 429 29,200 1,680 Climbing Fort Worth Center
Wed 10:46:17 AM 32.6508 -103.3797 303° West 375 432 30,900 1,536 Climbing Albuquerque Center
Wed 10:47:19 AM 32.7044 -103.4781 303° West 362 417 32,400 1,210 Climbing Albuquerque Center
Wed 10:48:21 AM 32.7606 -103.5761 304° West 358 412 33,400 774 Climbing Albuquerque Center
Wed 10:49:23 AM 32.8183 -103.6753 305° West 363 418 34,000 290 Climbing Albuquerque Center
Wed 10:50:25 AM 32.8869 -103.7933 305° West 361 415 34,000  Level Albuquerque Center
Wed 10:51:27 AM 32.9419 -103.8936 303° West 362 417 34,000  Level Albuquerque Center
Wed 10:52:28 AM 32.9972 -103.9936 303° West 362 417 34,000  Level Albuquerque Center
Wed 10:53:30 AM 33.0553 -104.1008 303° West 360 414 34,000  Level Albuquerque Center
Wed 10:54:32 AM 33.1094 -104.2011 303° West 360 414 34,000  Level Albuquerque Center
Wed 10:55:34 AM 33.1683 -104.3081 303° West 360 414 34,000  Level Albuquerque Center
Wed 10:56:36 AM 33.2136 -104.3933 302° West 359 413 34,000  Level Albuquerque Center
Wed 10:57:38 AM 33.2786 -104.5139 303° West 359 413 34,000  Level Albuquerque Center
Wed 10:58:40 AM 33.3344 -104.6142 304° West 362 417 34,000  Level Albuquerque Center
Wed 10:59:42 AM 33.4125 -104.6978 318° Northwest 354 407 34,000  Level Albuquerque Center
Wed 11:00:44 AM 33.4872 -104.7739 320° Northwest 352 405 34,000  Level Albuquerque Center
Wed 11:01:46 AM 33.5683 -104.8558 320° Northwest 354 407 34,000  Level Albuquerque Center
Wed 11:02:48 AM 33.6283 -104.9503 307° West 363 418 34,000  Level Albuquerque Center
Wed 11:03:49 AM 33.6631 -105.0808 288° West 380 437 34,000  Level Albuquerque Center
Wed 11:04:51 AM 33.6953 -105.2003 288° West 379 436 34,000  Level Albuquerque Center
Wed 11:05:53 AM 33.7272 -105.3192 288° West 378 435 34,000  Level Albuquerque Center
Wed 11:06:55 AM 33.7631 -105.4472 289° West 377 434 34,000  Level Albuquerque Center
Wed 11:07:57 AM 33.7936 -105.5614 288° West 375 432 34,000  Level Albuquerque Center
Wed 11:08:59 AM 33.8258 -105.6839 288° West 379 436 34,000  Level Albuquerque Center
Wed 11:10:01 AM 33.8578 -105.8036 288° West 377 434 34,000  Level Albuquerque Center
Wed 11:11:03 AM 33.8881 -105.9189 288° West 371 427 34,000  Level Albuquerque Center
Wed 11:12:05 AM 33.9186 -106.0389 287° West 373 429 34,000  Level Albuquerque Center
Wed 11:13:07 AM 33.9542 -106.1792 287° West 371 427 34,000  Level Albuquerque Center
Wed 11:14:09 AM 33.9856 -106.2978 288° West 371 427 34,000  Level Albuquerque Center
Wed 11:15:11 AM 34.0167 -106.4161 288° West 373 429 34,000  Level Albuquerque Center
Wed 11:16:13 AM 34.0467 -106.5328 287° West 369 425 34,000  Level Albuquerque Center
Wed 11:17:15 AM 34.0803 -106.6597 288° West 387 445 34,000 -48 Level Albuquerque Center
Wed 11:18:17 AM 34.1164 -106.8017 287° West 377 434 33,900  Descending Albuquerque Center
Wed 11:19:19 AM 34.1467 -106.9183 287° West 370 426 34,000 49 Climbing Albuquerque Center
Wed 11:20:20 AM 34.1769 -107.0375 287° West 373 429 34,000  Level Albuquerque Center
Wed 11:21:22 AM 34.2075 -107.1583 287° West 378 435 34,000  Level Albuquerque Center
Wed 11:22:24 AM 34.2372 -107.2864 286° West 388 447 34,000  Level Albuquerque Center
Wed 11:23:26 AM 34.2675 -107.4119 286° West 391 450 34,000  Level Albuquerque Center
Wed 11:24:28 AM 34.3053 -107.5589 287° West 387 445 34,000  Level Albuquerque Center
Wed 11:25:30 AM 34.3381 -107.6808 288° West 381 438 34,000  Level Albuquerque Center
Wed 11:26:32 AM 34.3694 -107.8061 287° West 386 444 34,000  Level Albuquerque Center
Wed 11:27:34 AM 34.4025 -107.9414 287° West 387 445 34,000  Level Albuquerque Center
Wed 11:28:36 AM 34.4311 -108.0608 286° West 386 444 34,000  Level Albuquerque Center
Wed 11:29:38 AM 34.4611 -108.1794 287° West 384 442 34,000  Level Albuquerque Center
Wed 11:30:39 AM 34.4936 -108.3181 286° West 383 441 34,000  Level Albuquerque Center
Wed 11:31:41 AM 34.5225 -108.4383 286° West 386 444 34,000  Level Albuquerque Center
Wed 11:32:43 AM 34.5558 -108.5772 286° West 385 443 34,000  Level Albuquerque Center
Wed 11:33:45 AM 34.5844 -108.6964 286° West 384 442 34,000  Level Albuquerque Center
Wed 11:34:47 AM 34.6178 -108.8350 286° West 382 440 34,000  Level Albuquerque Center
Wed 11:35:49 AM 34.6447 -108.9531 286° West 380 437 34,000  Level Albuquerque Center
Wed 11:36:51 AM 34.6789 -109.0939 286° West 385 443 34,000  Level Albuquerque Center
Wed 11:37:53 AM 34.7064 -109.2119 286° West 382 440 34,000  Level Albuquerque Center
Wed 11:38:54 AM 34.7344 -109.3314 286° West 382 440 34,000  Level Albuquerque Center
Wed 11:39:56 AM 34.7667 -109.4719 286° West 384 442 34,000  Level Albuquerque Center
Wed 11:40:58 AM 34.7944 -109.5928 286° West 387 445 34,000  Level Albuquerque Center
Wed 11:42:00 AM 34.8272 -109.7325 286° West 385 443 34,000  Level Albuquerque Center
Wed 11:43:02 AM 34.8539 -109.8508 285° West 381 438 34,000  Level Albuquerque Center
Wed 11:44:04 AM 34.8858 -109.9894 286° West 381 438 34,000  Level Albuquerque Center
Wed 11:45:05 AM 34.9131 -110.1069 286° West 378 435 34,000  Level Albuquerque Center
Wed 11:46:07 AM 34.9389 -110.2242 285° West 375 432 34,000  Level Albuquerque Center
Wed 11:47:09 AM 34.9686 -110.3622 285° West 375 432 34,000  Level Albuquerque Center
Wed 11:48:11 AM 34.9939 -110.4783 285° West 374 430 34,000  Level Albuquerque Center
Wed 11:49:13 AM 35.0225 -110.6153 284° West 372 428 34,000  Level Albuquerque Center
Wed 11:50:14 AM 35.0469 -110.7336 284° West 374 430 34,000  Level Albuquerque Center
Wed 11:51:16 AM 35.0761 -110.8714 285° West 375 432 34,000  Level Albuquerque Center
Wed 11:52:18 AM 35.1022 -110.9906 285° West 378 435 34,000  Level Albuquerque Center
Wed 11:53:20 AM 35.1294 -111.1200 284° West 385 443 34,000  Level Albuquerque Center
Wed 11:54:21 AM 35.1575 -111.2467 285° West 388 447 34,000 -98 Level Albuquerque Center
Wed 11:55:23 AM 35.1839 -111.3711 285° West 384 442 33,800 -968 Descending Albuquerque Center
Wed 11:56:25 AM 35.2103 -111.4939 285° West 379 436 32,000 -1,839 Descending Albuquerque Center
Wed 11:57:27 AM 35.2428 -111.6483 284° West 388 447 30,000 -968 Descending Albuquerque Center
Wed 11:58:29 AM 35.2697 -111.7792 284° West 393 452 30,000  Level Albuquerque Center
Wed 11:59:31 AM 35.2967 -111.9089 284° West 394 453 30,000  Level Albuquerque Center
Wed 12:00:32 PM 35.3247 -112.0400 285° West 398 458 30,000  Level Albuquerque Center
Wed 12:01:34 PM 35.3500 -112.1697 283° West 397 457 30,000  Level Albuquerque Center
Wed 12:02:36 PM 35.3781 -112.2986 285° West 395 455 30,000  Level Albuquerque Center
Wed 12:03:38 PM 35.4092 -112.4522 284° West 392 451 30,000  Level Albuquerque Center
Wed 12:04:40 PM 35.4353 -112.5792 284° West 390 449 30,000  Level Albuquerque Center
Wed 12:05:42 PM 35.4608 -112.7072 284° West 390 449 30,000  Level Albuquerque Center
Wed 12:06:44 PM 35.4847 -112.8378 283° West 390 449 30,000  Level Albuquerque Center
Wed 12:07:46 PM 35.5111 -112.9675 284° West 392 451 30,000  Level Albuquerque Center
Wed 12:08:47 PM 35.5417 -113.1169 284° West 396 456 30,000  Level Albuquerque Center
Wed 12:09:49 PM 35.5667 -113.2478 283° West 398 458 30,000 -485 Level Albuquerque Center
Wed 12:11:03 PM 35.5975 -113.4064 283° West 398 458 28,900 -1,600 Descending Los Angeles Center
Wed 12:12:04 PM 35.6222 -113.5306 284° West 381 438 26,400 -2,341 Descending Los Angeles Center
Wed 12:13:06 PM 35.6400 -113.6525 280° West 367 422 24,100 -2,419 Descending Los Angeles Center
Wed 12:14:08 PM 35.6603 -113.7914 280° West 347 399 21,400 -2,371 Descending Los Angeles Center
Wed 12:15:10 PM 35.6753 -113.9053 279° West 340 391 19,200 -1,452 Descending Los Angeles Center
Wed 12:16:12 PM 35.6922 -114.0142 281° West 327 376 18,400 -1,258 Descending Los Angeles Center
Wed 12:17:14 PM 35.7067 -114.1228 279° West 324 373 16,600 -2,049 Descending Los Angeles Center
Wed 12:18:15 PM 35.7242 -114.2442 280° West 325 374 14,200 -2,286 Descending Los Angeles Center
Wed 12:18:17 PM 35.7236 -114.2494 263° West 322 371 14,200 -2,066 Level Los Angeles Center
Wed 12:19:16 PM 35.7375 -114.3511 280° West 316 364 12,100 -2,032 Descending Los Angeles Center
Wed 12:19:19 PM 35.7386 -114.3539 296° West 313 360 12,100 -92 Level Los Angeles Center
Wed 12:20:21 PM 35.7928 -114.4097 320° Northwest 268 308 12,000 -94 Descending Los Angeles Center
Wed 12:20:23 PM 35.8014 -114.4144 336° Northwest 270 311 12,000 105 Level Los Angeles Center
Wed 12:21:18 PM 35.8636 -114.4414 341° North 260 299 12,100  Climbing Los Angeles Center
Wed 12:21:23 PM 35.8614 -114.4406 163° South 262 302 12,000 -590 Descending Los Angeles Center
Wed 12:22:19 PM 35.9214 -114.4856 329° Northwest 252 290 11,500 -484 Descending Los Angeles Center
Wed 12:22:25 PM 35.9203 -114.4822 112° Southeast 250 288 11,500 -1,100 Level Los Angeles Center
Wed 12:23:19 PM 35.9614 -114.5492 307° West 238 274 10,400 -1,161 Descending Los Angeles Center
Wed 12:23:27 PM 35.9606 -114.5478 127° Southeast 239 275 10,300 -984 Descending Los Angeles Center
Wed 12:24:20 PM 35.9992 -114.6111 307° West 228 262 9,400 -1,143 Descending Los Angeles Center
Wed 12:24:30 PM 36.0056 -114.6211 308° West 226 260 9,100 -1,082 Descending Los Angeles Center
Wed 12:25:21 PM 36.0367 -114.6731 307° West 225 259 8,300 -1,065 Descending Los Angeles Center
Wed 12:25:32 PM 36.0431 -114.6828 309° West 224 258 8,000 -295 Descending Los Angeles Center
Wed 12:26:22 PM 36.0717 -114.7439 300° West 230 265 8,000 -97 Level Los Angeles Center
Wed 12:26:34 PM 36.0761 -114.7492 316° Northwest 225 259 7,900 -885 Descending Los Angeles Center
Wed 12:27:23 PM 36.0719 -114.8236 266° West 238 274 7,100 -968 Descending Los Angeles Center
Wed 12:27:36 PM 36.0725 -114.8319 275° West 234 269 6,900 -1,100 Descending Los Angeles Center
Wed 12:28:23 PM 36.0736 -114.9003 271° West 223 257 6,000 -1,161 Descending Los Angeles Center
Wed 12:28:38 PM 36.0739 -114.9167 271° West 224 258 5,700 -1,279 Descending Los Angeles Center
Wed 12:29:24 PM 36.0739 -114.9694 270° West 201 231 4,700 -1,355 Descending Los Angeles Center
Wed 12:29:40 PM 36.0736 -114.9894 269° West 201 231 4,300 -1,075 Descending Los Angeles Center
Wed 12:30:31 PM 36.0722 -115.0417 268° West 179 206 3,500 -968 Descending Los Angeles Center
Wed 12:30:42 PM 36.0736 -115.0506 281° West 183 211 3,300 -774 Descending Los Angeles Center
Wed 12:31:33 PM 36.0739 -115.0892 271° West 137 158 2,700 -774 Descending Los Angeles Center
Wed 12:31:44 PM 36.0733 -115.0997 266° West 137 158 2,500 -568 Descending Los Angeles Center
Wed 12:32:47 PM 36.0769 -115.1367 277° West 124 143 2,000 -476 Descending Los Angeles Center
Wed 12:34:00 PM 36.0667 -115.1500 270° West  Level FlightAware Approximate

Login

Don't have an account? Register now (free) for customized features, flight alerts, and more!